sensor_id;sensor_type;location;lat;lon;timestamp;P1;durP1;ratioP1;P2;durP2;ratioP2
17181;SDS011;8706;48.254;16.422;2024-02-15T00:00:19;6.43;;;5.83;;
17181;SDS011;8706;48.254;16.422;2024-02-15T00:02:47;6.17;;;5.57;;
17181;SDS011;8706;48.254;16.422;2024-02-15T00:05:16;6.27;;;5.67;;
17181;SDS011;8706;48.254;16.422;2024-02-15T00:07:42;5.87;;;5.27;;
17181;SDS011;8706;48.254;16.422;2024-02-15T00:10:13;6.00;;;5.40;;
17181;SDS011;8706;48.254;16.422;2024-02-15T00:12:40;5.57;;;5.07;;
17181;SDS011;8706;48.254;16.422;2024-02-15T00:15:07;6.50;;;5.87;;
17181;SDS011;8706;48.254;16.422;2024-02-15T00:17:35;6.60;;;5.90;;
17181;SDS011;8706;48.254;16.422;2024-02-15T00:20:03;6.27;;;5.67;;
17181;SDS011;8706;48.254;16.422;2024-02-15T00:22:35;5.97;;;5.37;;
17181;SDS011;8706;48.254;16.422;2024-02-15T00:25:02;6.27;;;5.67;;
17181;SDS011;8706;48.254;16.422;2024-02-15T00:27:31;5.97;;;5.37;;
17181;SDS011;8706;48.254;16.422;2024-02-15T00:29:59;6.07;;;5.47;;
17181;SDS011;8706;48.254;16.422;2024-02-15T00:32:26;5.67;;;5.07;;
17181;SDS011;8706;48.254;16.422;2024-02-15T00:34:53;6.20;;;5.60;;
17181;SDS011;8706;48.254;16.422;2024-02-15T00:37:20;6.17;;;5.57;;
17181;SDS011;8706;48.254;16.422;2024-02-15T00:39:48;6.23;;;5.63;;
17181;SDS011;8706;48.254;16.422;2024-02-15T00:42:15;6.00;;;5.40;;
17181;SDS011;8706;48.254;16.422;2024-02-15T00:44:42;6.40;;;5.80;;
17181;SDS011;8706;48.254;16.422;2024-02-15T00:47:09;6.57;;;5.87;;
17181;SDS011;8706;48.254;16.422;2024-02-15T00:49:37;5.97;;;5.37;;
17181;SDS011;8706;48.254;16.422;2024-02-15T00:52:04;5.63;;;5.13;;
17181;SDS011;8706;48.254;16.422;2024-02-15T00:54:31;5.90;;;5.30;;
17181;SDS011;8706;48.254;16.422;2024-02-15T00:57:00;6.67;;;5.87;;
17181;SDS011;8706;48.254;16.422;2024-02-15T00:59:26;6.10;;;5.40;;
17181;SDS011;8706;48.254;16.422;2024-02-15T01:01:53;6.10;;;5.47;;
17181;SDS011;8706;48.254;16.422;2024-02-15T01:04:21;5.60;;;5.10;;
17181;SDS011;8706;48.254;16.422;2024-02-15T01:06:47;5.70;;;5.10;;
17181;SDS011;8706;48.254;16.422;2024-02-15T01:09:14;6.00;;;5.40;;
17181;SDS011;8706;48.254;16.422;2024-02-15T01:11:41;6.20;;;5.60;;
17181;SDS011;8706;48.254;16.422;2024-02-15T01:14:10;5.80;;;5.20;;
17181;SDS011;8706;48.254;16.422;2024-02-15T01:16:36;5.90;;;5.30;;
17181;SDS011;8706;48.254;16.422;2024-02-15T01:19:03;6.27;;;5.67;;
17181;SDS011;8706;48.254;16.422;2024-02-15T01:21:30;6.00;;;5.37;;
17181;SDS011;8706;48.254;16.422;2024-02-15T01:23:58;5.40;;;4.90;;
17181;SDS011;8706;48.254;16.422;2024-02-15T01:26:25;6.23;;;5.63;;
17181;SDS011;8706;48.254;16.422;2024-02-15T01:28:52;5.73;;;5.23;;
17181;SDS011;8706;48.254;16.422;2024-02-15T01:31:20;5.77;;;5.20;;
17181;SDS011;8706;48.254;16.422;2024-02-15T01:33:48;6.20;;;5.60;;
17181;SDS011;8706;48.254;16.422;2024-02-15T01:36:15;5.77;;;5.27;;
17181;SDS011;8706;48.254;16.422;2024-02-15T01:38:42;6.03;;;5.43;;
17181;SDS011;8706;48.254;16.422;2024-02-15T01:41:10;6.33;;;5.57;;
17181;SDS011;8706;48.254;16.422;2024-02-15T01:43:36;5.57;;;5.07;;
17181;SDS011;8706;48.254;16.422;2024-02-15T01:46:06;6.27;;;5.67;;
17181;SDS011;8706;48.254;16.422;2024-02-15T01:48:37;7.07;;;6.37;;
17181;SDS011;8706;48.254;16.422;2024-02-15T01:51:06;6.00;;;5.40;;
17181;SDS011;8706;48.254;16.422;2024-02-15T01:53:33;6.17;;;5.10;;
17181;SDS011;8706;48.254;16.422;2024-02-15T01:56:00;5.80;;;5.20;;
17181;SDS011;8706;48.254;16.422;2024-02-15T01:58:27;6.00;;;5.37;;
17181;SDS011;8706;48.254;16.422;2024-02-15T02:00:57;5.80;;;5.20;;
17181;SDS011;8706;48.254;16.422;2024-02-15T02:03:24;6.03;;;5.43;;
17181;SDS011;8706;48.254;16.422;2024-02-15T02:05:52;5.57;;;5.07;;
17181;SDS011;8706;48.254;16.422;2024-02-15T02:08:19;6.33;;;5.73;;
17181;SDS011;8706;48.254;16.422;2024-02-15T02:10:47;5.67;;;5.17;;
17181;SDS011;8706;48.254;16.422;2024-02-15T02:13:14;6.07;;;5.27;;
17181;SDS011;8706;48.254;16.422;2024-02-15T02:15:41;5.60;;;5.10;;
17181;SDS011;8706;48.254;16.422;2024-02-15T02:18:08;6.07;;;5.40;;
17181;SDS011;8706;48.254;16.422;2024-02-15T02:20:35;5.73;;;5.20;;
17181;SDS011;8706;48.254;16.422;2024-02-15T02:23:05;5.93;;;5.33;;
17181;SDS011;8706;48.254;16.422;2024-02-15T02:25:36;5.13;;;4.70;;
17181;SDS011;8706;48.254;16.422;2024-02-15T02:28:03;5.60;;;5.10;;
17181;SDS011;8706;48.254;16.422;2024-02-15T02:30:31;5.30;;;4.80;;
17181;SDS011;8706;48.254;16.422;2024-02-15T02:32:58;5.87;;;5.27;;
17181;SDS011;8706;48.254;16.422;2024-02-15T02:35:25;5.47;;;4.97;;
17181;SDS011;8706;48.254;16.422;2024-02-15T02:37:53;5.30;;;4.80;;
17181;SDS011;8706;48.254;16.422;2024-02-15T02:40:20;5.13;;;4.63;;
17181;SDS011;8706;48.254;16.422;2024-02-15T02:42:49;5.60;;;5.10;;
17181;SDS011;8706;48.254;16.422;2024-02-15T02:45:17;5.77;;;5.17;;
17181;SDS011;8706;48.254;16.422;2024-02-15T02:47:47;5.93;;;5.33;;
17181;SDS011;8706;48.254;16.422;2024-02-15T02:50:14;5.67;;;5.17;;
17181;SDS011;8706;48.254;16.422;2024-02-15T02:52:41;5.07;;;4.67;;
17181;SDS011;8706;48.254;16.422;2024-02-15T02:55:08;5.20;;;4.70;;
17181;SDS011;8706;48.254;16.422;2024-02-15T02:57:36;5.80;;;5.20;;
17181;SDS011;8706;48.254;16.422;2024-02-15T03:00:05;6.27;;;5.40;;
17181;SDS011;8706;48.254;16.422;2024-02-15T03:02:35;6.10;;;5.50;;
17181;SDS011;8706;48.254;16.422;2024-02-15T03:05:03;5.53;;;5.03;;
17181;SDS011;8706;48.254;16.422;2024-02-15T03:07:32;5.47;;;4.97;;
17181;SDS011;8706;48.254;16.422;2024-02-15T03:09:59;5.47;;;4.97;;
17181;SDS011;8706;48.254;16.422;2024-02-15T03:12:26;5.47;;;4.93;;
17181;SDS011;8706;48.254;16.422;2024-02-15T03:14:54;5.47;;;4.97;;
17181;SDS011;8706;48.254;16.422;2024-02-15T03:17:22;5.20;;;4.70;;
17181;SDS011;8706;48.254;16.422;2024-02-15T03:19:49;5.40;;;4.90;;
17181;SDS011;8706;48.254;16.422;2024-02-15T03:22:16;5.67;;;5.07;;
17181;SDS011;8706;48.254;16.422;2024-02-15T03:24:43;5.53;;;5.03;;
17181;SDS011;8706;48.254;16.422;2024-02-15T03:27:10;5.60;;;5.07;;
17181;SDS011;8706;48.254;16.422;2024-02-15T03:29:37;5.90;;;5.13;;
17181;SDS011;8706;48.254;16.422;2024-02-15T03:32:04;5.20;;;4.70;;
17181;SDS011;8706;48.254;16.422;2024-02-15T03:34:33;5.60;;;5.10;;
17181;SDS011;8706;48.254;16.422;2024-02-15T03:37:00;5.53;;;4.77;;
17181;SDS011;8706;48.254;16.422;2024-02-15T03:39:28;4.93;;;4.53;;
17181;SDS011;8706;48.254;16.422;2024-02-15T03:41:55;5.47;;;4.97;;
17181;SDS011;8706;48.254;16.422;2024-02-15T03:44:23;5.67;;;4.90;;
17181;SDS011;8706;48.254;16.422;2024-02-15T03:46:51;5.70;;;5.13;;
17181;SDS011;8706;48.254;16.422;2024-02-15T03:49:18;5.57;;;5.00;;
17181;SDS011;8706;48.254;16.422;2024-02-15T03:51:47;5.60;;;5.07;;
17181;SDS011;8706;48.254;16.422;2024-02-15T03:54:14;5.83;;;5.10;;
17181;SDS011;8706;48.254;16.422;2024-02-15T03:56:46;5.90;;;5.30;;
17181;SDS011;8706;48.254;16.422;2024-02-15T03:59:16;5.60;;;5.10;;
17181;SDS011;8706;48.254;16.422;2024-02-15T04:01:46;5.80;;;5.27;;
17181;SDS011;8706;48.254;16.422;2024-02-15T04:04:13;5.60;;;5.10;;
17181;SDS011;8706;48.254;16.422;2024-02-15T04:06:40;4.83;;;4.43;;
17181;SDS011;8706;48.254;16.422;2024-02-15T04:09:09;5.93;;;5.33;;
17181;SDS011;8706;48.254;16.422;2024-02-15T04:11:36;5.40;;;4.90;;
17181;SDS011;8706;48.254;16.422;2024-02-15T04:14:03;4.93;;;4.47;;
17181;SDS011;8706;48.254;16.422;2024-02-15T04:16:30;5.20;;;4.70;;
17181;SDS011;8706;48.254;16.422;2024-02-15T04:18:58;4.90;;;4.50;;
17181;SDS011;8706;48.254;16.422;2024-02-15T04:21:26;5.53;;;4.93;;
17181;SDS011;8706;48.254;16.422;2024-02-15T04:23:53;5.23;;;4.73;;
17181;SDS011;8706;48.254;16.422;2024-02-15T04:26:21;6.30;;;5.73;;
17181;SDS011;8706;48.254;16.422;2024-02-15T04:28:51;5.20;;;4.73;;
17181;SDS011;8706;48.254;16.422;2024-02-15T04:31:19;5.67;;;5.07;;
17181;SDS011;8706;48.254;16.422;2024-02-15T04:33:51;5.07;;;4.60;;
17181;SDS011;8706;48.254;16.422;2024-02-15T04:36:18;5.30;;;4.80;;
17181;SDS011;8706;48.254;16.422;2024-02-15T04:38:48;5.20;;;4.80;;
17181;SDS011;8706;48.254;16.422;2024-02-15T04:41:16;5.57;;;4.97;;
17181;SDS011;8706;48.254;16.422;2024-02-15T04:43:49;5.50;;;5.00;;
17181;SDS011;8706;48.254;16.422;2024-02-15T04:46:16;5.20;;;4.70;;
17181;SDS011;8706;48.254;16.422;2024-02-15T04:48:46;5.00;;;4.50;;
17181;SDS011;8706;48.254;16.422;2024-02-15T04:51:14;5.83;;;5.27;;
17181;SDS011;8706;48.254;16.422;2024-02-15T04:53:42;5.10;;;4.60;;
17181;SDS011;8706;48.254;16.422;2024-02-15T04:56:11;6.33;;;5.77;;
17181;SDS011;8706;48.254;16.422;2024-02-15T04:58:39;5.63;;;5.07;;
17181;SDS011;8706;48.254;16.422;2024-02-15T05:01:13;5.27;;;4.77;;
17181;SDS011;8706;48.254;16.422;2024-02-15T05:03:41;5.03;;;4.63;;
17181;SDS011;8706;48.254;16.422;2024-02-15T05:06:09;5.17;;;4.67;;
17181;SDS011;8706;48.254;16.422;2024-02-15T05:08:38;5.20;;;4.73;;
17181;SDS011;8706;48.254;16.422;2024-02-15T05:11:08;4.70;;;4.20;;
17181;SDS011;8706;48.254;16.422;2024-02-15T05:13:40;4.77;;;4.37;;
17181;SDS011;8706;48.254;16.422;2024-02-15T05:16:07;5.37;;;4.87;;
17181;SDS011;8706;48.254;16.422;2024-02-15T05:18:35;4.93;;;4.43;;
17181;SDS011;8706;48.254;16.422;2024-02-15T05:21:03;5.23;;;4.73;;
17181;SDS011;8706;48.254;16.422;2024-02-15T05:23:34;5.20;;;4.70;;
17181;SDS011;8706;48.254;16.422;2024-02-15T05:26:01;5.37;;;4.80;;
17181;SDS011;8706;48.254;16.422;2024-02-15T05:28:28;5.20;;;4.70;;
17181;SDS011;8706;48.254;16.422;2024-02-15T05:31:08;5.50;;;5.00;;
17181;SDS011;8706;48.254;16.422;2024-02-15T05:33:38;5.20;;;4.77;;
17181;SDS011;8706;48.254;16.422;2024-02-15T05:36:07;4.53;;;4.13;;
17181;SDS011;8706;48.254;16.422;2024-02-15T05:38:35;5.23;;;4.73;;
17181;SDS011;8706;48.254;16.422;2024-02-15T05:41:02;4.73;;;4.33;;
17181;SDS011;8706;48.254;16.422;2024-02-15T05:43:29;4.90;;;4.50;;
17181;SDS011;8706;48.254;16.422;2024-02-15T05:45:57;4.67;;;4.23;;
17181;SDS011;8706;48.254;16.422;2024-02-15T05:48:26;5.20;;;4.80;;
17181;SDS011;8706;48.254;16.422;2024-02-15T05:50:55;4.53;;;4.13;;
17181;SDS011;8706;48.254;16.422;2024-02-15T05:53:24;5.07;;;4.57;;
17181;SDS011;8706;48.254;16.422;2024-02-15T05:55:51;4.97;;;4.57;;
17181;SDS011;8706;48.254;16.422;2024-02-15T05:58:18;5.23;;;4.83;;
17181;SDS011;8706;48.254;16.422;2024-02-15T06:00:45;5.00;;;4.60;;
17181;SDS011;8706;48.254;16.422;2024-02-15T06:03:14;4.97;;;4.47;;
17181;SDS011;8706;48.254;16.422;2024-02-15T06:05:41;4.97;;;4.47;;
17181;SDS011;8706;48.254;16.422;2024-02-15T06:08:10;5.37;;;4.90;;
17181;SDS011;8706;48.254;16.422;2024-02-15T06:10:38;4.60;;;4.20;;
17181;SDS011;8706;48.254;16.422;2024-02-15T06:13:05;5.00;;;4.60;;
17181;SDS011;8706;48.254;16.422;2024-02-15T06:15:33;4.93;;;4.53;;
17181;SDS011;8706;48.254;16.422;2024-02-15T06:18:01;4.57;;;4.17;;
17181;SDS011;8706;48.254;16.422;2024-02-15T06:20:34;5.20;;;4.70;;
17181;SDS011;8706;48.254;16.422;2024-02-15T06:23:00;4.93;;;4.53;;
17181;SDS011;8706;48.254;16.422;2024-02-15T06:25:31;5.57;;;5.07;;
17181;SDS011;8706;48.254;16.422;2024-02-15T06:27:58;5.10;;;4.60;;
17181;SDS011;8706;48.254;16.422;2024-02-15T06:30:27;4.97;;;4.57;;
17181;SDS011;8706;48.254;16.422;2024-02-15T06:33:12;5.20;;;4.70;;
17181;SDS011;8706;48.254;16.422;2024-02-15T06:35:56;4.37;;;4.03;;
17181;SDS011;8706;48.254;16.422;2024-02-15T06:38:40;5.37;;;4.97;;
17181;SDS011;8706;48.254;16.422;2024-02-15T06:41:26;4.60;;;4.20;;
17181;SDS011;8706;48.254;16.422;2024-02-15T06:43:54;4.47;;;4.07;;
17181;SDS011;8706;48.254;16.422;2024-02-15T06:46:21;4.80;;;4.40;;
17181;SDS011;8706;48.254;16.422;2024-02-15T06:48:48;5.43;;;5.03;;
17181;SDS011;8706;48.254;16.422;2024-02-15T06:51:15;4.30;;;3.90;;
17181;SDS011;8706;48.254;16.422;2024-02-15T06:53:42;5.00;;;4.60;;
17181;SDS011;8706;48.254;16.422;2024-02-15T06:56:10;5.13;;;4.73;;
17181;SDS011;8706;48.254;16.422;2024-02-15T06:58:40;5.37;;;4.87;;
17181;SDS011;8706;48.254;16.422;2024-02-15T07:01:07;5.30;;;4.90;;
17181;SDS011;8706;48.254;16.422;2024-02-15T07:03:34;5.17;;;4.70;;
17181;SDS011;8706;48.254;16.422;2024-02-15T07:06:00;4.87;;;4.40;;
17181;SDS011;8706;48.254;16.422;2024-02-15T07:08:28;4.50;;;4.10;;
17181;SDS011;8706;48.254;16.422;2024-02-15T07:10:55;4.70;;;4.30;;
17181;SDS011;8706;48.254;16.422;2024-02-15T07:13:23;4.97;;;4.50;;
17181;SDS011;8706;48.254;16.422;2024-02-15T07:15:53;4.93;;;4.53;;
17181;SDS011;8706;48.254;16.422;2024-02-15T07:18:20;5.20;;;4.70;;
17181;SDS011;8706;48.254;16.422;2024-02-15T07:20:47;4.93;;;4.50;;
17181;SDS011;8706;48.254;16.422;2024-02-15T07:23:14;4.87;;;4.47;;
17181;SDS011;8706;48.254;16.422;2024-02-15T07:25:41;5.40;;;4.90;;
17181;SDS011;8706;48.254;16.422;2024-02-15T07:28:07;4.90;;;4.50;;
17181;SDS011;8706;48.254;16.422;2024-02-15T07:30:34;4.83;;;4.43;;
17181;SDS011;8706;48.254;16.422;2024-02-15T07:33:03;4.57;;;4.17;;
17181;SDS011;8706;48.254;16.422;2024-02-15T07:35:31;4.73;;;4.33;;
17181;SDS011;8706;48.254;16.422;2024-02-15T07:38:00;4.70;;;4.30;;
17181;SDS011;8706;48.254;16.422;2024-02-15T07:40:27;4.70;;;4.30;;
17181;SDS011;8706;48.254;16.422;2024-02-15T07:42:56;5.27;;;4.87;;
17181;SDS011;8706;48.254;16.422;2024-02-15T07:45:23;5.03;;;4.53;;
17181;SDS011;8706;48.254;16.422;2024-02-15T07:47:50;4.93;;;4.50;;
17181;SDS011;8706;48.254;16.422;2024-02-15T07:50:19;5.50;;;5.00;;
17181;SDS011;8706;48.254;16.422;2024-02-15T07:52:48;4.60;;;4.20;;
17181;SDS011;8706;48.254;16.422;2024-02-15T07:55:16;5.17;;;4.47;;
17181;SDS011;8706;48.254;16.422;2024-02-15T07:57:43;5.10;;;4.60;;
17181;SDS011;8706;48.254;16.422;2024-02-15T08:00:11;5.13;;;4.73;;
17181;SDS011;8706;48.254;16.422;2024-02-15T08:02:41;5.03;;;4.53;;
17181;SDS011;8706;48.254;16.422;2024-02-15T08:05:09;5.47;;;4.97;;
17181;SDS011;8706;48.254;16.422;2024-02-15T08:07:41;4.97;;;4.50;;
17181;SDS011;8706;48.254;16.422;2024-02-15T08:10:09;5.17;;;4.67;;
17181;SDS011;8706;48.254;16.422;2024-02-15T08:12:38;5.30;;;4.83;;
17181;SDS011;8706;48.254;16.422;2024-02-15T08:15:09;5.20;;;4.70;;
17181;SDS011;8706;48.254;16.422;2024-02-15T08:17:38;5.47;;;4.97;;
17181;SDS011;8706;48.254;16.422;2024-02-15T08:20:06;4.87;;;4.47;;
17181;SDS011;8706;48.254;16.422;2024-02-15T08:22:34;5.20;;;4.70;;
17181;SDS011;8706;48.254;16.422;2024-02-15T08:25:05;5.00;;;4.50;;
17181;SDS011;8706;48.254;16.422;2024-02-15T08:27:35;5.33;;;4.83;;
17181;SDS011;8706;48.254;16.422;2024-02-15T08:30:06;4.80;;;4.40;;
17181;SDS011;8706;48.254;16.422;2024-02-15T08:32:35;5.50;;;5.00;;
17181;SDS011;8706;48.254;16.422;2024-02-15T08:35:03;5.43;;;4.93;;
17181;SDS011;8706;48.254;16.422;2024-02-15T08:37:31;5.33;;;4.87;;
17181;SDS011;8706;48.254;16.422;2024-02-15T08:39:59;5.00;;;4.50;;
17181;SDS011;8706;48.254;16.422;2024-02-15T08:42:27;6.10;;;5.57;;
17181;SDS011;8706;48.254;16.422;2024-02-15T08:44:54;5.67;;;5.17;;
17181;SDS011;8706;48.254;16.422;2024-02-15T08:47:21;5.40;;;4.90;;
17181;SDS011;8706;48.254;16.422;2024-02-15T08:49:47;5.40;;;4.90;;
17181;SDS011;8706;48.254;16.422;2024-02-15T08:52:14;5.60;;;5.10;;
17181;SDS011;8706;48.254;16.422;2024-02-15T08:54:43;5.43;;;4.93;;
17181;SDS011;8706;48.254;16.422;2024-02-15T08:57:10;5.20;;;4.80;;
17181;SDS011;8706;48.254;16.422;2024-02-15T08:59:40;5.40;;;4.90;;
17181;SDS011;8706;48.254;16.422;2024-02-15T09:02:07;5.80;;;5.30;;
17181;SDS011;8706;48.254;16.422;2024-02-15T09:04:34;5.27;;;4.77;;
17181;SDS011;8706;48.254;16.422;2024-02-15T09:07:01;5.27;;;4.77;;
17181;SDS011;8706;48.254;16.422;2024-02-15T09:09:29;5.43;;;5.03;;
17181;SDS011;8706;48.254;16.422;2024-02-15T09:12:00;6.00;;;5.20;;
17181;SDS011;8706;48.254;16.422;2024-02-15T09:14:30;5.60;;;5.20;;
17181;SDS011;8706;48.254;16.422;2024-02-15T09:16:58;5.13;;;4.73;;
17181;SDS011;8706;48.254;16.422;2024-02-15T09:19:25;5.50;;;5.00;;
17181;SDS011;8706;48.254;16.422;2024-02-15T09:21:52;4.80;;;4.30;;
17181;SDS011;8706;48.254;16.422;2024-02-15T09:24:20;6.43;;;5.80;;
17181;SDS011;8706;48.254;16.422;2024-02-15T09:26:47;5.13;;;4.63;;
17181;SDS011;8706;48.254;16.422;2024-02-15T09:29:14;5.53;;;5.10;;
17181;SDS011;8706;48.254;16.422;2024-02-15T09:31:40;5.03;;;4.63;;
17181;SDS011;8706;48.254;16.422;2024-02-15T09:34:08;5.03;;;4.63;;
17181;SDS011;8706;48.254;16.422;2024-02-15T09:36:34;5.23;;;4.83;;
17181;SDS011;8706;48.254;16.422;2024-02-15T09:39:03;4.90;;;4.50;;
17181;SDS011;8706;48.254;16.422;2024-02-15T09:41:31;5.87;;;5.37;;
17181;SDS011;8706;48.254;16.422;2024-02-15T09:43:59;4.93;;;4.43;;
17181;SDS011;8706;48.254;16.422;2024-02-15T09:46:26;4.57;;;4.17;;
17181;SDS011;8706;48.254;16.422;2024-02-15T09:48:54;4.37;;;4.07;;
17181;SDS011;8706;48.254;16.422;2024-02-15T09:51:24;4.77;;;4.37;;
17181;SDS011;8706;48.254;16.422;2024-02-15T09:53:53;5.57;;;5.07;;
17181;SDS011;8706;48.254;16.422;2024-02-15T09:56:23;4.77;;;4.37;;
17181;SDS011;8706;48.254;16.422;2024-02-15T09:58:51;5.17;;;4.57;;
17181;SDS011;8706;48.254;16.422;2024-02-15T10:01:18;5.00;;;4.50;;
17181;SDS011;8706;48.254;16.422;2024-02-15T10:03:49;4.37;;;4.00;;
17181;SDS011;8706;48.254;16.422;2024-02-15T10:06:16;5.33;;;4.83;;
17181;SDS011;8706;48.254;16.422;2024-02-15T10:08:45;5.63;;;5.13;;
17181;SDS011;8706;48.254;16.422;2024-02-15T10:11:12;4.93;;;4.47;;
17181;SDS011;8706;48.254;16.422;2024-02-15T10:13:40;5.37;;;4.87;;
17181;SDS011;8706;48.254;16.422;2024-02-15T10:16:15;5.03;;;4.63;;
17181;SDS011;8706;48.254;16.422;2024-02-15T10:18:44;4.67;;;4.27;;
17181;SDS011;8706;48.254;16.422;2024-02-15T10:21:23;5.00;;;4.60;;
17181;SDS011;8706;48.254;16.422;2024-02-15T10:24:03;5.27;;;4.80;;
17181;SDS011;8706;48.254;16.422;2024-02-15T10:26:31;4.13;;;3.83;;
17181;SDS011;8706;48.254;16.422;2024-02-15T10:29:06;5.07;;;4.67;;
17181;SDS011;8706;48.254;16.422;2024-02-15T10:31:35;4.80;;;4.40;;
17181;SDS011;8706;48.254;16.422;2024-02-15T10:34:03;4.80;;;4.40;;
17181;SDS011;8706;48.254;16.422;2024-02-15T10:36:31;5.57;;;5.07;;
17181;SDS011;8706;48.254;16.422;2024-02-15T10:39:13;4.87;;;4.47;;
17181;SDS011;8706;48.254;16.422;2024-02-15T10:41:44;5.10;;;4.60;;
17181;SDS011;8706;48.254;16.422;2024-02-15T10:44:15;4.83;;;4.43;;
17181;SDS011;8706;48.254;16.422;2024-02-15T10:46:44;5.77;;;5.27;;
17181;SDS011;8706;48.254;16.422;2024-02-15T10:49:15;4.60;;;4.17;;
17181;SDS011;8706;48.254;16.422;2024-02-15T10:51:48;5.10;;;4.70;;
17181;SDS011;8706;48.254;16.422;2024-02-15T10:54:26;5.40;;;5.00;;
17181;SDS011;8706;48.254;16.422;2024-02-15T10:57:08;5.00;;;4.60;;
17181;SDS011;8706;48.254;16.422;2024-02-15T10:59:36;5.30;;;4.90;;
17181;SDS011;8706;48.254;16.422;2024-02-15T11:02:10;5.30;;;4.80;;
17181;SDS011;8706;48.254;16.422;2024-02-15T11:04:50;5.07;;;4.67;;
17181;SDS011;8706;48.254;16.422;2024-02-15T11:07:20;5.20;;;4.80;;
17181;SDS011;8706;48.254;16.422;2024-02-15T11:09:48;5.00;;;4.60;;
17181;SDS011;8706;48.254;16.422;2024-02-15T11:12:16;4.80;;;4.40;;
17181;SDS011;8706;48.254;16.422;2024-02-15T11:14:44;4.73;;;4.43;;
17181;SDS011;8706;48.254;16.422;2024-02-15T11:17:11;5.60;;;5.10;;
17181;SDS011;8706;48.254;16.422;2024-02-15T11:23:27;5.33;;;4.90;;
17181;SDS011;8706;48.254;16.422;2024-02-15T11:25:55;5.00;;;4.60;;
17181;SDS011;8706;48.254;16.422;2024-02-15T11:37:09;4.73;;;4.33;;
17181;SDS011;8706;48.254;16.422;2024-02-15T11:39:42;5.23;;;4.80;;
17181;SDS011;8706;48.254;16.422;2024-02-15T11:42:28;5.17;;;4.77;;
17181;SDS011;8706;48.254;16.422;2024-02-15T11:45:02;5.07;;;4.67;;
17181;SDS011;8706;48.254;16.422;2024-02-15T11:47:31;4.73;;;4.33;;
17181;SDS011;8706;48.254;16.422;2024-02-15T11:50:01;4.70;;;4.30;;
17181;SDS011;8706;48.254;16.422;2024-02-15T11:52:29;4.87;;;4.47;;
17181;SDS011;8706;48.254;16.422;2024-02-15T11:55:03;4.90;;;4.50;;
17181;SDS011;8706;48.254;16.422;2024-02-15T11:57:36;5.00;;;4.60;;
17181;SDS011;8706;48.254;16.422;2024-02-15T12:00:19;4.13;;;3.83;;
17181;SDS011;8706;48.254;16.422;2024-02-15T12:03:01;4.83;;;4.43;;
17181;SDS011;8706;48.254;16.422;2024-02-15T12:05:44;4.80;;;4.40;;
17181;SDS011;8706;48.254;16.422;2024-02-15T12:08:28;5.03;;;4.53;;
17181;SDS011;8706;48.254;16.422;2024-02-15T12:11:13;5.00;;;4.60;;
17181;SDS011;8706;48.254;16.422;2024-02-15T12:13:59;4.90;;;4.50;;
17181;SDS011;8706;48.254;16.422;2024-02-15T12:16:43;5.53;;;5.03;;
17181;SDS011;8706;48.254;16.422;2024-02-15T12:19:28;5.13;;;4.73;;
17181;SDS011;8706;48.254;16.422;2024-02-15T12:21:55;5.63;;;5.23;;
17181;SDS011;8706;48.254;16.422;2024-02-15T12:24:23;5.17;;;4.67;;
17181;SDS011;8706;48.254;16.422;2024-02-15T12:26:59;4.83;;;4.43;;
17181;SDS011;8706;48.254;16.422;2024-02-15T12:29:29;4.90;;;4.50;;
17181;SDS011;8706;48.254;16.422;2024-02-15T12:31:56;4.70;;;4.30;;
17181;SDS011;8706;48.254;16.422;2024-02-15T12:34:23;5.00;;;4.60;;
17181;SDS011;8706;48.254;16.422;2024-02-15T12:36:50;4.70;;;4.33;;
17181;SDS011;8706;48.254;16.422;2024-02-15T12:39:31;5.00;;;4.60;;
17181;SDS011;8706;48.254;16.422;2024-02-15T12:41:59;5.20;;;4.80;;
17181;SDS011;8706;48.254;16.422;2024-02-15T12:44:26;4.10;;;3.80;;
17181;SDS011;8706;48.254;16.422;2024-02-15T12:46:59;4.93;;;4.53;;
17181;SDS011;8706;48.254;16.422;2024-02-15T12:49:28;4.40;;;4.10;;
17181;SDS011;8706;48.254;16.422;2024-02-15T12:55:06;4.93;;;4.43;;
17181;SDS011;8706;48.254;16.422;2024-02-15T12:57:39;4.70;;;4.40;;
17181;SDS011;8706;48.254;16.422;2024-02-15T13:00:10;4.63;;;4.23;;
17181;SDS011;8706;48.254;16.422;2024-02-15T13:02:44;4.53;;;4.23;;
17181;SDS011;8706;48.254;16.422;2024-02-15T13:05:12;4.83;;;4.43;;
17181;SDS011;8706;48.254;16.422;2024-02-15T13:07:39;5.40;;;4.90;;
17181;SDS011;8706;48.254;16.422;2024-02-15T13:10:06;4.87;;;4.53;;
17181;SDS011;8706;48.254;16.422;2024-02-15T13:12:34;4.50;;;4.20;;
17181;SDS011;8706;48.254;16.422;2024-02-15T13:15:03;4.43;;;4.13;;
17181;SDS011;8706;48.254;16.422;2024-02-15T13:17:32;4.97;;;4.57;;
17181;SDS011;8706;48.254;16.422;2024-02-15T13:20:01;4.90;;;4.27;;
17181;SDS011;8706;48.254;16.422;2024-02-15T13:22:35;4.90;;;4.50;;
17181;SDS011;8706;48.254;16.422;2024-02-15T13:25:04;5.30;;;4.90;;
17181;SDS011;8706;48.254;16.422;2024-02-15T13:27:32;4.70;;;4.40;;
17181;SDS011;8706;48.254;16.422;2024-02-15T13:29:59;4.43;;;4.13;;
17181;SDS011;8706;48.254;16.422;2024-02-15T13:32:26;4.53;;;4.13;;
17181;SDS011;8706;48.254;16.422;2024-02-15T13:34:54;5.23;;;4.77;;
17181;SDS011;8706;48.254;16.422;2024-02-15T13:37:22;4.50;;;4.10;;
17181;SDS011;8706;48.254;16.422;2024-02-15T13:39:49;4.53;;;4.20;;
17181;SDS011;8706;48.254;16.422;2024-02-15T13:42:16;4.40;;;4.10;;
17181;SDS011;8706;48.254;16.422;2024-02-15T13:44:44;4.53;;;4.23;;
17181;SDS011;8706;48.254;16.422;2024-02-15T13:47:12;4.40;;;4.07;;
17181;SDS011;8706;48.254;16.422;2024-02-15T13:49:41;5.03;;;4.63;;
17181;SDS011;8706;48.254;16.422;2024-02-15T13:52:08;4.90;;;4.50;;
17181;SDS011;8706;48.254;16.422;2024-02-15T13:54:37;4.30;;;4.00;;
17181;SDS011;8706;48.254;16.422;2024-02-15T13:57:04;4.63;;;4.23;;
17181;SDS011;8706;48.254;16.422;2024-02-15T13:59:32;5.17;;;4.77;;
17181;SDS011;8706;48.254;16.422;2024-02-15T14:01:59;4.73;;;4.43;;
17181;SDS011;8706;48.254;16.422;2024-02-15T14:04:28;4.57;;;4.20;;
17181;SDS011;8706;48.254;16.422;2024-02-15T14:06:57;4.77;;;4.37;;
17181;SDS011;8706;48.254;16.422;2024-02-15T14:09:24;5.00;;;4.60;;
17181;SDS011;8706;48.254;16.422;2024-02-15T14:11:53;4.60;;;4.30;;
17181;SDS011;8706;48.254;16.422;2024-02-15T14:14:20;5.10;;;4.70;;
17181;SDS011;8706;48.254;16.422;2024-02-15T14:16:47;5.50;;;5.10;;
17181;SDS011;8706;48.254;16.422;2024-02-15T14:19:14;5.00;;;4.60;;
17181;SDS011;8706;48.254;16.422;2024-02-15T14:21:42;5.20;;;4.70;;
17181;SDS011;8706;48.254;16.422;2024-02-15T14:24:10;5.20;;;4.80;;
17181;SDS011;8706;48.254;16.422;2024-02-15T14:26:37;5.23;;;4.83;;
17181;SDS011;8706;48.254;16.422;2024-02-15T14:29:06;5.73;;;5.23;;
17181;SDS011;8706;48.254;16.422;2024-02-15T14:31:34;5.20;;;4.80;;
17181;SDS011;8706;48.254;16.422;2024-02-15T14:34:19;5.90;;;5.40;;
17181;SDS011;8706;48.254;16.422;2024-02-15T14:36:46;5.77;;;5.27;;
17181;SDS011;8706;48.254;16.422;2024-02-15T14:39:13;5.70;;;5.20;;
17181;SDS011;8706;48.254;16.422;2024-02-15T14:41:40;5.53;;;5.03;;
17181;SDS011;8706;48.254;16.422;2024-02-15T14:44:09;5.90;;;5.40;;
17181;SDS011;8706;48.254;16.422;2024-02-15T14:46:37;6.00;;;5.60;;
17181;SDS011;8706;48.254;16.422;2024-02-15T14:49:05;5.77;;;5.27;;
17181;SDS011;8706;48.254;16.422;2024-02-15T14:51:33;5.73;;;5.23;;
17181;SDS011;8706;48.254;16.422;2024-02-15T14:54:02;5.57;;;5.07;;
17181;SDS011;8706;48.254;16.422;2024-02-15T14:56:29;5.80;;;5.30;;
17181;SDS011;8706;48.254;16.422;2024-02-15T14:58:58;5.73;;;5.23;;
17181;SDS011;8706;48.254;16.422;2024-02-15T15:01:27;5.67;;;5.17;;
17181;SDS011;8706;48.254;16.422;2024-02-15T15:03:55;5.37;;;4.97;;
17181;SDS011;8706;48.254;16.422;2024-02-15T15:06:23;6.07;;;5.60;;
17181;SDS011;8706;48.254;16.422;2024-02-15T15:09:23;6.20;;;5.70;;
17181;SDS011;8706;48.254;16.422;2024-02-15T15:12:07;6.13;;;5.63;;
17181;SDS011;8706;48.254;16.422;2024-02-15T15:14:51;5.77;;;5.27;;